createdAt,value
2017-05-29T00:00:04.558Z,2.94
2017-05-29T00:02:32.801Z,3.46
2017-05-29T00:05:01.106Z,2.44
2017-05-29T00:07:29.325Z,3.30
2017-05-29T00:09:57.561Z,3.48
2017-05-29T00:12:25.798Z,2.60
2017-05-29T00:14:54.026Z,3.10
2017-05-29T00:17:22.273Z,3.38
2017-05-29T00:19:50.545Z,3.18
2017-05-29T00:22:18.770Z,3.04
2017-05-29T00:24:47.010Z,3.58
2017-05-29T00:27:15.237Z,2.96
2017-05-29T00:29:43.478Z,3.96
2017-05-29T00:32:11.711Z,3.52
2017-05-29T00:34:39.953Z,3.06
2017-05-29T00:37:08.177Z,4.06
2017-05-29T00:39:36.408Z,3.48
2017-05-29T00:42:04.638Z,3.78
2017-05-29T00:44:32.902Z,3.46
2017-05-29T00:47:01.145Z,3.02
2017-05-29T00:49:29.366Z,3.82
2017-05-29T00:51:57.597Z,3.48
2017-05-29T00:54:25.821Z,2.72
2017-05-29T00:56:54.055Z,2.62
2017-05-29T00:59:22.355Z,2.90
2017-05-29T01:01:50.633Z,2.48
2017-05-29T01:04:18.858Z,2.82
2017-05-29T01:06:47.098Z,3.06
2017-05-29T01:09:15.353Z,2.78
2017-05-29T01:11:43.565Z,2.92
2017-05-29T01:14:17.638Z,2.76
2017-05-29T01:16:45.861Z,2.70
2017-05-29T01:19:14.098Z,2.96
2017-05-29T01:21:42.369Z,2.88
2017-05-29T01:24:10.605Z,2.72
2017-05-29T01:26:38.825Z,3.38
2017-05-29T01:29:07.098Z,2.64
2017-05-29T01:31:35.337Z,2.72
2017-05-29T01:34:03.711Z,3.00
2017-05-29T01:36:31.929Z,3.02
2017-05-29T01:39:00.160Z,2.40
2017-05-29T01:41:28.412Z,2.78
2017-05-29T01:43:56.638Z,2.52
2017-05-29T01:46:24.868Z,2.68
2017-05-29T01:48:53.218Z,2.76
2017-05-29T01:51:21.450Z,3.32
2017-05-29T01:53:49.677Z,2.44
2017-05-29T01:56:17.934Z,2.70
2017-05-29T01:58:46.172Z,3.02
2017-05-29T02:01:14.409Z,3.20
2017-05-29T02:03:42.642Z,3.60
2017-05-29T02:06:10.942Z,3.48
2017-05-29T02:08:39.178Z,2.92
2017-05-29T02:11:07.440Z,4.14
2017-05-29T02:13:35.657Z,3.64
2017-05-29T02:16:03.938Z,3.58
2017-05-29T02:18:32.174Z,3.46
2017-05-29T02:21:00.677Z,3.00
2017-05-29T02:23:28.920Z,3.90
2017-05-29T02:25:57.133Z,3.20
2017-05-29T02:28:25.381Z,3.72
2017-05-29T02:30:53.698Z,3.10
2017-05-29T02:33:21.970Z,3.16
2017-05-29T02:35:50.194Z,2.66
2017-05-29T02:38:18.433Z,4.06
2017-05-29T02:40:46.698Z,3.28
2017-05-29T02:43:14.967Z,3.88
2017-05-29T02:45:43.249Z,3.78
2017-05-29T02:48:11.499Z,4.02
2017-05-29T02:50:39.725Z,4.50
2017-05-29T02:53:07.949Z,4.48
2017-05-29T02:55:36.188Z,3.02
2017-05-29T02:58:04.419Z,3.74
2017-05-29T03:00:32.706Z,3.36
2017-05-29T03:03:00.921Z,3.40
2017-05-29T03:05:29.153Z,3.40
2017-05-29T03:07:57.379Z,3.02
2017-05-29T03:10:25.618Z,3.80
2017-05-29T03:12:53.842Z,3.22
2017-05-29T03:15:22.074Z,4.28
2017-05-29T03:17:50.299Z,3.92
2017-05-29T03:20:18.529Z,4.34
2017-05-29T03:22:46.769Z,4.10
2017-05-29T03:25:15.053Z,5.70
2017-05-29T03:27:43.285Z,3.84
2017-05-29T03:30:11.502Z,3.64
2017-05-29T03:32:39.778Z,3.40
2017-05-29T03:35:08.053Z,3.70
2017-05-29T03:37:36.293Z,3.64
2017-05-29T03:40:04.515Z,3.32
2017-05-29T03:42:32.749Z,3.38
2017-05-29T03:45:00.973Z,3.62
2017-05-29T03:47:29.210Z,3.46
2017-05-29T03:49:57.508Z,3.54
2017-05-29T03:52:25.791Z,3.52
2017-05-29T03:54:54.016Z,4.20
2017-05-29T03:57:22.242Z,3.16
2017-05-29T03:59:50.505Z,3.58
2017-05-29T04:02:18.750Z,4.78
2017-05-29T04:04:46.973Z,4.02
2017-05-29T04:07:15.206Z,3.38
2017-05-29T04:09:43.431Z,3.22
2017-05-29T04:12:11.649Z,3.82
2017-05-29T04:14:39.894Z,3.32
2017-05-29T04:17:08.138Z,3.74
2017-05-29T04:19:36.386Z,3.24
2017-05-29T04:22:04.609Z,2.98
2017-05-29T04:24:32.958Z,3.30
2017-05-29T04:27:01.301Z,3.14
2017-05-29T04:29:29.537Z,3.28
2017-05-29T04:31:57.756Z,3.58
2017-05-29T04:34:26.062Z,3.38
2017-05-29T04:36:54.295Z,3.50
2017-05-29T04:39:22.617Z,3.40
2017-05-29T04:41:50.889Z,3.24
2017-05-29T04:44:19.124Z,3.24
2017-05-29T04:46:47.349Z,4.22
2017-05-29T04:49:15.582Z,3.52
2017-05-29T04:51:43.840Z,4.18
2017-05-29T04:54:12.069Z,4.42
2017-05-29T04:56:40.347Z,4.04
2017-05-29T04:59:08.576Z,4.48
2017-05-29T05:01:36.797Z,4.42
2017-05-29T05:04:05.072Z,3.28
2017-05-29T05:06:33.298Z,4.00
2017-05-29T05:09:01.535Z,3.58
2017-05-29T05:11:29.762Z,4.20
2017-05-29T05:13:57.998Z,3.80
2017-05-29T05:16:26.214Z,3.50
2017-05-29T05:18:54.526Z,3.58
2017-05-29T05:21:22.801Z,3.30
2017-05-29T05:23:51.075Z,4.12
2017-05-29T05:26:19.298Z,4.20
2017-05-29T05:28:47.546Z,3.20
2017-05-29T05:31:15.781Z,3.58
2017-05-29T05:33:44.009Z,4.32
2017-05-29T05:36:12.241Z,3.86
2017-05-29T05:38:40.477Z,3.66
2017-05-29T05:41:08.706Z,3.62
2017-05-29T05:43:36.933Z,3.34
2017-05-29T05:46:05.158Z,3.50
2017-05-29T05:48:33.387Z,4.30
2017-05-29T05:51:01.622Z,3.92
2017-05-29T05:53:29.842Z,4.48
2017-05-29T05:55:58.092Z,4.86
2017-05-29T05:58:26.433Z,7.16
2017-05-29T06:00:54.669Z,4.96
2017-05-29T06:03:22.982Z,4.28
2017-05-29T06:05:51.258Z,4.80
2017-05-29T06:08:19.485Z,4.28
2017-05-29T06:10:47.712Z,4.60
2017-05-29T06:13:15.986Z,4.82
2017-05-29T06:15:44.253Z,4.82
2017-05-29T06:18:12.491Z,4.50
2017-05-29T06:20:40.723Z,4.46
2017-05-29T06:23:08.980Z,4.66
2017-05-29T06:25:37.265Z,4.48
2017-05-29T06:28:05.545Z,4.42
2017-05-29T06:30:33.817Z,4.50
2017-05-29T06:33:02.062Z,3.80
2017-05-29T06:35:30.369Z,4.50
2017-05-29T06:37:58.644Z,5.10
2017-05-29T06:40:26.913Z,3.72
2017-05-29T06:42:55.190Z,3.82
2017-05-29T06:45:23.470Z,3.62
2017-05-29T06:47:51.749Z,3.60
2017-05-29T06:50:19.989Z,3.70
2017-05-29T06:52:48.293Z,3.28
2017-05-29T06:55:16.525Z,3.76
2017-05-29T06:57:44.740Z,4.30
2017-05-29T07:00:12.971Z,4.28
2017-05-29T07:02:41.205Z,3.58
2017-05-29T07:05:09.469Z,4.00
2017-05-29T07:07:37.759Z,3.80
2017-05-29T07:10:06.029Z,3.86
2017-05-29T07:12:34.309Z,3.00
2017-05-29T07:15:02.582Z,3.78
2017-05-29T07:17:30.859Z,3.84
2017-05-29T07:19:59.077Z,4.32
2017-05-29T07:22:27.318Z,4.14
2017-05-29T07:24:55.538Z,3.34
2017-05-29T07:27:23.864Z,3.68
2017-05-29T07:29:52.073Z,3.56
2017-05-29T07:32:20.315Z,3.74
2017-05-29T07:34:48.538Z,3.42
2017-05-29T07:37:16.866Z,3.12
2017-05-29T07:39:45.141Z,3.16
2017-05-29T07:42:13.413Z,3.24
2017-05-29T07:44:42.098Z,3.24
2017-05-29T07:47:10.314Z,3.34
2017-05-29T07:49:38.651Z,4.02
2017-05-29T07:52:06.929Z,3.14
2017-05-29T07:54:35.166Z,3.62
2017-05-29T07:57:03.477Z,3.46
2017-05-29T07:59:31.705Z,3.88
2017-05-29T08:02:00.034Z,3.70
2017-05-29T08:04:28.255Z,3.68
2017-05-29T08:06:56.583Z,3.70
2017-05-29T08:09:25.729Z,3.62
2017-05-29T08:11:54.061Z,3.80
2017-05-29T08:14:22.342Z,3.70
2017-05-29T08:16:50.573Z,4.18
2017-05-29T08:19:18.889Z,3.70
2017-05-29T08:21:47.134Z,4.48
2017-05-29T08:24:15.440Z,3.86
2017-05-29T08:26:43.682Z,3.40
2017-05-29T08:29:11.994Z,3.74
2017-05-29T08:31:40.230Z,3.20
2017-05-29T08:34:08.545Z,3.90
2017-05-29T08:36:36.813Z,3.58
2017-05-29T08:39:05.037Z,3.66
2017-05-29T08:41:33.372Z,3.30
2017-05-29T08:44:01.598Z,3.24
2017-05-29T08:46:29.833Z,3.72
2017-05-29T08:48:58.072Z,3.82
2017-05-29T08:51:26.381Z,4.00
2017-05-29T08:53:54.613Z,3.42
2017-05-29T08:56:22.930Z,4.06
2017-05-29T08:58:51.145Z,3.60
2017-05-29T09:01:19.381Z,3.62
2017-05-29T09:03:47.617Z,3.40
2017-05-29T09:06:15.837Z,3.62
2017-05-29T09:08:44.069Z,4.12
2017-05-29T09:11:12.301Z,4.10
2017-05-29T09:13:40.589Z,4.00
2017-05-29T09:16:08.760Z,4.04
2017-05-29T09:18:37.007Z,3.92
2017-05-29T09:21:05.234Z,4.02
2017-05-29T09:23:33.461Z,4.12
2017-05-29T09:26:01.683Z,4.18
2017-05-29T09:28:29.914Z,4.50
2017-05-29T09:30:58.154Z,4.12
2017-05-29T09:33:26.373Z,5.04
2017-05-29T09:35:54.624Z,4.18
2017-05-29T09:38:22.850Z,4.12
2017-05-29T09:40:51.077Z,4.06
2017-05-29T09:43:19.365Z,5.08
2017-05-29T09:45:47.602Z,4.40
2017-05-29T09:48:15.820Z,4.10
2017-05-29T09:50:44.066Z,4.68
2017-05-29T09:53:12.362Z,4.50
2017-05-29T09:55:40.640Z,4.48
2017-05-29T09:58:08.902Z,4.50
2017-05-29T10:00:37.121Z,4.82
2017-05-29T10:03:05.362Z,5.12
2017-05-29T10:05:33.592Z,3.96
2017-05-29T10:08:01.910Z,4.76
2017-05-29T10:10:30.124Z,4.42
2017-05-29T10:12:58.361Z,4.72
2017-05-29T10:15:26.629Z,4.54
2017-05-29T10:17:54.872Z,5.34
2017-05-29T10:20:23.098Z,5.34
2017-05-29T10:22:51.321Z,4.72
2017-05-29T10:25:19.634Z,4.60
2017-05-29T10:27:47.917Z,5.14
2017-05-29T10:30:16.193Z,4.72
2017-05-29T10:32:44.425Z,4.42
2017-05-29T10:35:12.653Z,4.62
2017-05-29T10:37:40.890Z,4.64
2017-05-29T10:40:09.130Z,4.84
2017-05-29T10:42:37.354Z,5.20
2017-05-29T10:45:05.593Z,4.98
2017-05-29T10:47:33.809Z,4.92
2017-05-29T10:50:02.038Z,5.10
2017-05-29T10:52:30.269Z,4.50
2017-05-29T10:54:58.499Z,3.56
2017-05-29T10:57:26.731Z,4.64
2017-05-29T10:59:54.957Z,4.66
2017-05-29T11:02:23.186Z,5.50
2017-05-29T11:04:51.411Z,5.10
2017-05-29T11:07:19.648Z,5.68
2017-05-29T11:09:47.869Z,5.20
2017-05-29T11:12:16.118Z,4.92
2017-05-29T11:14:44.348Z,5.68
2017-05-29T11:17:12.572Z,5.12
2017-05-29T11:19:40.810Z,5.66
2017-05-29T11:22:09.041Z,4.72
2017-05-29T11:24:37.269Z,4.64
2017-05-29T11:27:05.498Z,4.66
2017-05-29T11:29:33.732Z,5.22
2017-05-29T11:32:02.010Z,6.00
2017-05-29T11:34:30.249Z,5.78
2017-05-29T11:36:58.479Z,5.90
2017-05-29T11:39:26.710Z,6.24
2017-05-29T11:41:54.944Z,5.24
2017-05-29T11:44:23.165Z,5.40
2017-05-29T11:46:51.401Z,5.42
2017-05-29T11:49:19.625Z,4.32
2017-05-29T11:51:47.852Z,5.20
2017-05-29T11:54:16.105Z,5.70
2017-05-29T11:56:44.322Z,5.38
2017-05-29T11:59:12.561Z,5.28
2017-05-29T12:01:40.798Z,5.60
2017-05-29T12:04:09.017Z,5.20
2017-05-29T12:06:37.265Z,5.02
2017-05-29T12:09:05.497Z,5.62
2017-05-29T12:11:33.733Z,5.36
2017-05-29T12:14:01.972Z,5.32
2017-05-29T12:16:30.208Z,5.26
2017-05-29T12:18:58.429Z,5.20
2017-05-29T12:21:26.661Z,5.44
2017-05-29T12:23:54.902Z,5.70
2017-05-29T12:26:23.117Z,6.10
2017-05-29T12:28:51.351Z,5.68
2017-05-29T12:31:19.585Z,5.20
2017-05-29T12:33:47.829Z,5.74
2017-05-29T12:36:16.049Z,5.32
2017-05-29T12:38:44.291Z,5.54
2017-05-29T12:41:12.513Z,5.74
2017-05-29T12:43:40.750Z,6.20
2017-05-29T12:46:08.982Z,6.26
2017-05-29T12:48:37.214Z,5.04
2017-05-29T12:51:05.438Z,5.32
2017-05-29T12:53:33.675Z,5.08
2017-05-29T12:56:01.901Z,5.56
2017-05-29T12:58:30.137Z,5.22
2017-05-29T13:00:58.349Z,5.04
2017-05-29T13:03:26.569Z,5.16
2017-05-29T13:05:54.813Z,4.54
2017-05-29T13:08:23.037Z,4.56
2017-05-29T13:10:51.274Z,5.26
2017-05-29T13:13:19.493Z,5.48
2017-05-29T13:15:47.733Z,5.24
2017-05-29T13:18:15.962Z,5.14
2017-05-29T13:20:44.198Z,5.68
2017-05-29T13:23:12.426Z,5.48
2017-05-29T13:25:40.663Z,5.36
2017-05-29T13:28:08.897Z,4.96
2017-05-29T13:30:37.146Z,4.90
2017-05-29T13:33:05.370Z,4.20
2017-05-29T13:35:33.603Z,5.08
2017-05-29T13:38:01.839Z,4.90
2017-05-29T13:40:30.077Z,4.40
2017-05-29T13:42:58.297Z,4.12
2017-05-29T13:45:26.518Z,4.02
2017-05-29T13:47:54.761Z,4.62
2017-05-29T13:50:23.938Z,5.00
2017-05-29T13:52:52.188Z,4.72
2017-05-29T13:55:20.409Z,4.70
2017-05-29T13:57:48.641Z,4.68
2017-05-29T14:00:16.864Z,4.66
2017-05-29T14:02:45.105Z,4.66
2017-05-29T14:05:13.337Z,4.60
2017-05-29T14:07:41.565Z,5.18
2017-05-29T14:10:09.801Z,5.30
2017-05-29T14:12:38.038Z,5.04
2017-05-29T14:15:06.275Z,5.46
2017-05-29T14:17:34.503Z,5.16
2017-05-29T14:20:02.732Z,4.40
2017-05-29T14:22:30.954Z,5.52
2017-05-29T14:24:59.186Z,5.06
2017-05-29T14:27:27.416Z,5.84
2017-05-29T14:29:55.641Z,5.04
2017-05-29T14:32:23.871Z,5.12
2017-05-29T14:34:52.197Z,5.06
2017-05-29T14:37:20.426Z,5.12
2017-05-29T14:39:48.665Z,5.38
2017-05-29T14:42:16.894Z,5.60
2017-05-29T14:44:45.117Z,5.84
2017-05-29T14:47:13.363Z,4.82
2017-05-29T14:49:41.586Z,5.56
2017-05-29T14:52:09.809Z,5.46
2017-05-29T14:54:38.049Z,6.18
2017-05-29T14:57:06.294Z,6.20
2017-05-29T14:59:34.510Z,6.36
2017-05-29T15:02:02.747Z,5.96
2017-05-29T15:04:30.985Z,6.02
2017-05-29T15:06:59.211Z,6.38
2017-05-29T15:09:27.456Z,5.86
2017-05-29T15:11:55.678Z,5.88
2017-05-29T15:14:23.913Z,6.32
2017-05-29T15:16:52.137Z,6.74
2017-05-29T15:19:20.377Z,5.56
2017-05-29T15:21:48.600Z,5.98
2017-05-29T15:24:16.822Z,6.38
2017-05-29T15:26:45.067Z,5.94
2017-05-29T15:29:13.293Z,5.88
2017-05-29T15:31:41.531Z,5.42
2017-05-29T15:34:09.758Z,5.66
2017-05-29T15:36:38.001Z,6.60
2017-05-29T15:39:06.218Z,7.58
2017-05-29T15:41:34.459Z,7.00
2017-05-29T15:44:02.693Z,6.80
2017-05-29T15:46:30.945Z,6.16
2017-05-29T15:48:59.170Z,6.94
2017-05-29T15:51:27.410Z,7.32
2017-05-29T15:53:55.641Z,7.06
2017-05-29T15:56:25.818Z,6.20
2017-05-29T15:58:54.057Z,7.12
2017-05-29T16:01:22.283Z,7.18
2017-05-29T16:03:50.521Z,7.18
2017-05-29T16:06:18.737Z,7.00
2017-05-29T16:08:47.378Z,7.70
2017-05-29T16:11:15.607Z,8.38
2017-05-29T16:13:43.838Z,7.26
2017-05-29T16:16:12.062Z,7.46
2017-05-29T16:18:40.301Z,7.28
2017-05-29T16:21:08.527Z,8.62
2017-05-29T16:23:36.759Z,7.40
2017-05-29T16:26:04.985Z,7.22
2017-05-29T16:28:33.221Z,6.72
2017-05-29T16:31:01.445Z,7.68
2017-05-29T16:33:29.686Z,7.14
2017-05-29T16:35:57.911Z,7.52
2017-05-29T16:38:26.126Z,7.10
2017-05-29T16:40:54.369Z,8.02
2017-05-29T16:43:22.593Z,7.34
2017-05-29T16:45:50.835Z,7.34
2017-05-29T16:48:19.061Z,6.30
2017-05-29T16:50:47.298Z,6.68
2017-05-29T16:53:15.523Z,6.74
2017-05-29T16:55:43.754Z,6.02
2017-05-29T16:58:11.985Z,6.14
2017-05-29T17:00:40.236Z,7.10
2017-05-29T17:03:08.457Z,7.02
2017-05-29T17:05:36.689Z,7.02
2017-05-29T17:08:04.916Z,5.72
2017-05-29T17:10:33.154Z,6.04
2017-05-29T17:13:01.382Z,6.66
2017-05-29T17:15:29.617Z,6.30
2017-05-29T17:17:57.856Z,6.60
2017-05-29T17:20:26.090Z,5.78
2017-05-29T17:22:54.306Z,6.14
2017-05-29T17:25:22.556Z,6.40
2017-05-29T17:27:50.786Z,6.20
2017-05-29T17:30:19.018Z,5.96
2017-05-29T17:32:47.245Z,6.06
2017-05-29T17:35:15.465Z,6.16
2017-05-29T17:37:43.765Z,6.20
2017-05-29T17:40:11.937Z,5.80
2017-05-29T17:42:40.183Z,6.00
2017-05-29T17:45:08.409Z,5.54
2017-05-29T17:47:36.641Z,4.58
2017-05-29T17:50:04.876Z,4.48
2017-05-29T17:52:33.109Z,3.62
2017-05-29T17:55:01.334Z,3.32
2017-05-29T17:57:29.569Z,3.06
2017-05-29T17:59:57.797Z,4.68
2017-05-29T18:02:26.022Z,3.58
2017-05-29T18:04:54.250Z,4.02
2017-05-29T18:07:22.478Z,3.30
2017-05-29T18:09:50.717Z,2.96
2017-05-29T18:12:18.942Z,3.58
2017-05-29T18:14:47.169Z,3.64
2017-05-29T18:17:15.392Z,3.30
2017-05-29T18:19:43.634Z,3.36
2017-05-29T18:22:11.849Z,3.64
2017-05-29T18:24:40.098Z,3.36
2017-05-29T18:27:08.322Z,3.72
2017-05-29T18:29:36.551Z,3.46
2017-05-29T18:32:04.771Z,3.58
2017-05-29T18:34:33.013Z,3.46
2017-05-29T18:37:01.250Z,3.28
2017-05-29T18:39:29.482Z,3.66
2017-05-29T18:41:57.713Z,3.50
2017-05-29T18:44:25.954Z,3.66
2017-05-29T18:46:54.173Z,4.08
2017-05-29T18:49:22.401Z,3.58
2017-05-29T18:51:50.643Z,4.00
2017-05-29T18:54:18.866Z,3.86
2017-05-29T18:56:47.097Z,3.98
2017-05-29T18:59:15.331Z,3.58
2017-05-29T19:01:43.574Z,4.10
2017-05-29T19:04:11.794Z,3.80
2017-05-29T19:06:43.109Z,3.82
2017-05-29T19:09:11.325Z,4.40
2017-05-29T19:11:39.560Z,4.06
2017-05-29T19:14:07.794Z,3.90
2017-05-29T19:16:36.017Z,3.70
2017-05-29T19:19:04.254Z,3.90
2017-05-29T19:21:32.477Z,4.38
2017-05-29T19:24:00.721Z,4.10
2017-05-29T19:26:28.938Z,4.26
2017-05-29T19:28:57.177Z,4.38
2017-05-29T19:31:25.409Z,4.20
2017-05-29T19:33:53.645Z,4.30
2017-05-29T19:36:21.880Z,3.70
2017-05-29T19:38:50.094Z,4.10
2017-05-29T19:41:18.334Z,4.42
2017-05-29T19:43:46.549Z,3.92
2017-05-29T19:46:14.788Z,4.58
2017-05-29T19:48:43.013Z,4.40
2017-05-29T19:51:11.254Z,4.32
2017-05-29T19:53:39.477Z,4.32
2017-05-29T19:56:07.718Z,3.92
2017-05-29T19:58:35.950Z,4.50
2017-05-29T20:01:04.174Z,4.60
2017-05-29T20:03:32.419Z,4.30
2017-05-29T20:06:00.641Z,4.50
2017-05-29T20:08:28.878Z,4.62
2017-05-29T20:10:57.102Z,4.50
2017-05-29T20:13:25.334Z,4.36
2017-05-29T20:15:53.562Z,5.36
2017-05-29T20:18:21.801Z,3.60
2017-05-29T20:20:50.025Z,4.38
2017-05-29T20:23:18.259Z,4.26
2017-05-29T20:25:46.497Z,4.58
2017-05-29T20:28:14.721Z,4.32
2017-05-29T20:30:42.957Z,4.70
2017-05-29T20:33:11.174Z,4.28
2017-05-29T20:35:39.409Z,3.76
2017-05-29T20:38:07.645Z,4.32
2017-05-29T20:40:35.889Z,4.48
2017-05-29T20:43:04.129Z,4.14
2017-05-29T20:45:32.362Z,4.26
2017-05-29T20:48:00.594Z,3.76
2017-05-29T20:50:28.050Z,4.30
2017-05-29T20:52:56.525Z,4.22
2017-05-29T20:55:24.763Z,3.70
2017-05-29T20:57:53.350Z,4.90
2017-05-29T21:00:21.578Z,3.96
2017-05-29T21:02:49.053Z,3.94
2017-05-29T21:05:17.283Z,4.60
2017-05-29T21:07:45.520Z,3.92
2017-05-29T21:10:13.757Z,3.84
2017-05-29T21:12:41.236Z,3.82
2017-05-29T21:15:09.466Z,3.60
2017-05-29T21:17:37.709Z,3.68
2017-05-29T21:20:05.941Z,3.92
2017-05-29T21:22:34.162Z,3.74
2017-05-29T21:25:02.404Z,3.84
2017-05-29T21:27:30.637Z,4.02
2017-05-29T21:29:58.870Z,4.12
2017-05-29T21:32:27.093Z,3.56
2017-05-29T21:34:55.333Z,4.86
2017-05-29T21:37:23.566Z,4.30
2017-05-29T21:42:44.808Z,3.42
2017-05-29T21:45:12.282Z,3.94
2017-05-29T21:47:40.509Z,3.94
2017-05-29T21:50:08.748Z,4.26
2017-05-29T21:52:36.977Z,4.20
2017-05-29T21:55:04.434Z,4.20
2017-05-29T21:57:32.673Z,4.68
2017-05-29T22:00:00.885Z,4.14
2017-05-29T22:02:29.133Z,3.90
2017-05-29T22:04:57.357Z,3.62
2017-05-29T22:07:25.590Z,4.00
2017-05-29T22:09:53.817Z,4.16
2017-05-29T22:12:22.062Z,4.26
2017-05-29T22:14:50.289Z,4.34
2017-05-29T22:17:18.530Z,4.88
2017-05-29T22:19:46.768Z,4.78
2017-05-29T22:22:14.997Z,4.60
2017-05-29T22:24:43.219Z,4.38
2017-05-29T22:27:11.450Z,4.40
2017-05-29T22:29:39.689Z,4.70
2017-05-29T22:32:07.917Z,4.02
2017-05-29T22:34:36.156Z,4.00
2017-05-29T22:37:04.393Z,4.74
2017-05-29T22:39:32.626Z,4.64
2017-05-29T22:42:00.857Z,4.20
2017-05-29T22:44:28.335Z,3.72
2017-05-29T22:46:56.579Z,3.32
2017-05-29T22:49:24.814Z,3.74
2017-05-29T22:51:53.041Z,3.70
2017-05-29T22:54:21.281Z,3.42
2017-05-29T22:56:49.505Z,3.20
2017-05-29T22:59:17.748Z,3.86
2017-05-29T23:01:45.974Z,3.58
2017-05-29T23:04:14.214Z,3.30
2017-05-29T23:06:42.438Z,3.24
2017-05-29T23:09:10.670Z,3.00
2017-05-29T23:11:38.910Z,3.18
2017-05-29T23:14:07.126Z,3.64
2017-05-29T23:16:35.363Z,3.78
2017-05-29T23:19:03.589Z,3.16
2017-05-29T23:21:31.830Z,3.14
2017-05-29T23:24:00.063Z,2.76
2017-05-29T23:26:28.304Z,3.08
2017-05-29T23:28:56.537Z,2.88
2017-05-29T23:31:24.786Z,3.40
2017-05-29T23:33:53.015Z,2.86
2017-05-29T23:36:21.238Z,3.08
2017-05-29T23:38:49.481Z,2.98
2017-05-29T23:41:17.720Z,2.90
2017-05-29T23:43:45.954Z,3.16
2017-05-29T23:46:14.188Z,2.84
2017-05-29T23:48:42.427Z,3.44
2017-05-29T23:51:10.652Z,3.12
2017-05-29T23:53:38.897Z,3.02
2017-05-29T23:56:07.136Z,3.10
2017-05-29T23:58:35.381Z,3.30
